Latest Weather Observations for Evans Head

IDN60801

Issued at 12:12 pm EST Sunday 22 September 2019 (issued every 10 minutes, with the page automatically refreshed every 10 minutes)

About weather observations | Map of weather stations | Latest weather observations for NSW | Other Formats
Station Details ID: 058212 Name: EVANS HEAD RAAF BOMBING RANGE AWS Lat: -29.18 Lon: 153.40 Height: 62.5 m
Data from the previous 72 hours. | See also: Recent months at Evans Head
Date/Time
EST
Temp
°C
App
Temp
°C
Dew
Point
°C
Rel
Hum
%
Delta-T
°C
Wind Press
QNH
hPa
Press
MSL
hPa
Rain since
9am
mm
Dir  Spd
km/h
Gust
km/h
Spd
kts
Gust
kts
22/12:00pm 29.5 28.5 15.6 43 8.6 NNW 15 28 8 15 1022.7 1022.6 0.0
22/11:30am 28.7 27.0 16.3 47 7.7 NNW 20 32 11 17 1023.0 1022.9 0.0
22/11:00am 28.2 28.2 17.1 51 7.0 N 13 24 7 13 1023.3 1023.2 0.0
22/10:30am 26.8 26.0 17.0 55 6.1 NNW 17 28 9 15 1023.8 1023.7 0.0
22/10:00am 25.9 25.7 16.7 57 5.7 N 13 22 7 12 1024.1 1024.0 0.0
22/09:30am 24.2 23.5 16.5 62 4.7 NNW 15 22 8 12 1024.4 1024.3 0.0
22/09:00am 23.5 23.6 16.5 65 4.3 NNW 11 19 6 10 1024.6 1024.5 0.2
22/08:30am 23.1 23.3 17.6 71 3.4 NNW 13 20 7 11 1024.6 1024.5 0.2
22/08:00am 21.8 22.1 18.0 79 2.4 N 13 24 7 13 1024.7 1024.6 0.2
22/07:30am 19.6 19.2 17.2 86 1.5 N 15 20 8 11 1024.7 1024.6 0.2
22/07:00am 17.9 18.1 16.8 93 0.7 N 11 17 6 9 1024.5 1024.4 0.2
22/06:30am 16.7 16.2 15.9 95 0.5 N 13 17 7 9 1024.4 1024.3 0.2
22/06:00am 15.9 15.5 15.1 95 0.5 N 11 15 6 8 1024.4 1024.3 0.2
22/05:30am 15.9 15.4 14.9 94 0.6 N 11 17 6 9 1024.1 1024.0 0.0
22/05:00am 16.0 15.5 15.0 94 0.6 N 11 17 6 9 1023.8 1023.7 0.0
22/04:30am 16.3 16.3 15.3 94 0.6 N 9 15 5 8 1023.7 1023.6 0.0
22/04:00am 16.6 16.0 15.6 94 0.6 N 13 19 7 10 1023.3 1023.2 0.0
22/03:30am 16.5 16.2 15.5 94 0.6 N 11 17 6 9 1023.1 1023.0 0.0
22/03:00am 16.8 15.8 15.7 93 0.6 N 15 20 8 11 1023.0 1022.9 0.0
22/02:30am 17.1 15.5 16.1 94 0.6 N 19 30 10 16 1022.8 1022.7 0.0
22/02:00am 17.2 16.0 16.2 94 0.6 N 17 26 9 14 1023.0 1022.9 0.0
22/01:30am 17.4 16.3 16.4 94 0.6 N 17 26 9 14 1023.3 1023.2 0.0
22/01:00am 17.6 16.2 16.6 94 0.6 N 19 24 10 13 1023.5 1023.4 0.0
22/12:30am 17.7 16.7 16.6 93 0.7 N 17 30 9 16 1023.7 1023.6 0.0
22/12:00am 17.8 16.4 16.5 92 0.8 N 19 30 10 16 1023.8 1023.7 0.0
 
Date/Time
EST
Temp
°C
App
Temp
°C
Dew
Point
°C
Rel
Hum
%
Delta-T
°C
Wind Press
QNH
hPa
Press
MSL
hPa
Rain since
9am
mm
Dir  Spd
km/h
Gust
km/h
Spd
kts
Gust
kts
21/11:30pm 18.0 16.7 16.7 92 0.8 N 19 32 10 17 1024.0 1023.9 0.0
21/11:00pm 18.4 17.6 17.2 93 0.7 N 17 26 9 14 1024.2 1024.1 0.0
21/10:30pm 18.5 17.2 17.2 92 0.8 N 20 30 11 16 1024.2 1024.1 0.0
21/10:00pm 18.3 17.1 17.1 93 0.7 N 19 30 10 16 1024.2 1024.1 0.0
21/09:30pm 18.4 17.2 17.1 92 0.8 N 19 35 10 19 1024.1 1024.0 0.0
21/09:00pm 18.6 16.9 17.3 92 0.8 N 22 37 12 20 1024.0 1023.9 0.0
21/08:30pm 18.4 17.0 17.1 92 0.8 N 20 35 11 19 1024.0 1023.9 0.0
21/08:00pm 18.7 16.2 17.2 91 0.9 N 26 41 14 22 1023.6 1023.5 0.0
21/07:49pm 18.7 15.9 17.2 91 0.9 N 28 46 15 25 1023.4 1023.3 0.0
21/07:30pm 18.8 16.8 17.3 91 0.9 NNE 24 41 13 22 1023.3 1023.2 0.0
21/07:00pm 19.0 16.9 17.1 89 1.1 NNE 24 41 13 22 1023.1 1023.0 0.0
21/06:30pm 18.9 16.7 17.0 89 1.2 NNE 24 39 13 21 1022.6 1022.5 0.0
21/06:00pm 19.0 16.9 17.1 89 1.2 NNE 24 39 13 21 1022.4 1022.3 0.0
21/05:30pm 19.5 16.9 16.9 85 1.6 NNE 26 43 14 23 1022.2 1022.1 0.0
21/05:00pm 20.1 17.1 16.9 82 1.9 NNE 28 43 15 23 1022.1 1022.0 0.0
21/04:30pm 20.9 18.7 16.9 78 2.4 NNE 24 39 13 21 1022.0 1021.9 0.0
21/04:00pm 21.7 20.0 17.3 76 2.7 NNE 22 43 12 23 1022.1 1022.0 0.0
21/03:36pm 21.9 19.0 17.1 74 2.9 NNE 28 48 15 26 1022.2 1022.1 0.0
21/03:30pm 22.1 19.9 16.8 72 3.2 NNE 24 48 13 26 1022.2 1022.1 0.0
21/03:00pm 23.1 21.3 17.8 72 3.3 NNE 24 35 13 19 1022.3 1022.2 0.0
21/02:34pm 22.8 20.1 17.5 72 3.3 NNE 28 46 15 25 1022.2 1022.1 0.0
21/02:30pm 22.9 20.5 17.4 71 3.4 NNE 26 43 14 23 1022.3 1022.2 0.0
21/02:00pm 23.1 20.8 17.6 71 3.4 NNE 26 46 14 25 1022.5 1022.4 0.0
21/01:49pm 22.9 20.3 17.8 73 3.2 NE 28 46 15 25 1022.6 1022.5 0.0
21/01:30pm 23.6 21.7 17.6 69 3.7 NNE 24 41 13 22 1022.8 1022.7 0.0
21/01:00pm 22.8 20.8 17.5 72 3.3 NNE 24 39 13 21 1023.2 1023.1 0.0
21/12:30pm 22.2 20.3 16.7 71 3.4 NNE 22 35 12 19 1023.8 1023.7 0.0
21/12:00pm 23.6 21.8 17.8 70 3.6 N 24 39 13 21 1024.2 1024.1 0.0
21/11:30am 21.3 20.8 16.9 76 2.7 NE 15 26 8 14 1024.8 1024.7 0.0
21/11:00am 22.7 22.1 17.6 73 3.2 ENE 17 24 9 13 1025.1 1025.0 0.0
21/10:30am 21.4 20.7 17.4 78 2.5 ESE 17 20 9 11 1025.7 1025.6 0.0
21/10:00am 22.6 23.1 16.6 69 3.6 NNW 9 17 5 9 1026.0 1025.9 0.0
21/09:30am 22.5 23.8 18.5 78 2.5 NNW 9 15 5 8 1026.3 1026.2 0.0
21/09:00am 20.1 21.4 17.5 85 1.6 N 7 13 4 7 1026.3 1026.2 2.4
21/08:30am 19.1 19.4 17.1 88 1.2 N 11 15 6 8 1026.4 1026.3 2.4
21/08:00am 18.3 19.8 17.5 95 0.5 NNW 6 9 3 5 1026.4 1026.3 2.4
21/07:30am 17.4 19.3 16.8 96 0.4 NW 2 6 1 3 1026.2 1026.1 2.4
21/07:00am 16.2 16.9 15.6 96 0.3 WNW 6 7 3 4 1025.9 1025.8 2.4
21/06:30am 15.2 15.5 14.4 95 0.5 N 6 9 3 5 1025.6 1025.5 2.4
21/06:00am 15.0 14.6 14.2 95 0.5 N 9 9 5 5 1025.5 1025.4 2.4
21/05:30am 15.2 15.2 14.2 94 0.6 N 7 9 4 5 1025.4 1025.3 2.4
21/05:00am 15.3 14.9 14.2 93 0.6 NNW 9 11 5 6 1025.3 1025.2 2.4
21/04:30am 15.8 16.1 14.5 92 0.7 NNW 6 7 3 4 1024.7 1024.6 2.4
21/04:00am 16.1 15.9 14.8 92 0.7 NNW 9 13 5 7 1024.5 1024.4 2.4
21/03:30am 16.5 16.9 15.4 93 0.6 NNW 7 9 4 5 1024.6 1024.5 2.4
21/03:00am 16.5 16.6 15.4 93 0.6 NW 9 13 5 7 1024.5 1024.4 2.4
21/02:30am 17.0 17.6 15.9 93 0.6 NW 7 9 4 5 1024.6 1024.5 2.4
21/02:00am 17.1 18.0 16.0 93 0.6 NNW 6 9 3 5 1024.5 1024.4 2.2
21/01:30am 17.3 19.4 16.2 93 0.7 CALM 0 0 0 0 1024.9 1024.8 0.0
21/01:00am 16.8 17.3 15.5 92 0.8 NW 7 9 4 5 1025.1 1025.0 0.0
21/12:30am 16.8 17.2 15.2 90 0.9 NNW 7 9 4 5 1025.3 1025.2 0.0
21/12:00am 17.2 17.7 15.5 90 1.0 N 7 13 4 7 1025.4 1025.3 0.0
 
Date/Time
EST
Temp
°C
App
Temp
°C
Dew
Point
°C
Rel
Hum
%
Delta-T
°C
Wind Press
QNH
hPa
Press
MSL
hPa
Rain since
9am
mm
Dir  Spd
km/h
Gust
km/h
Spd
kts
Gust
kts
20/11:30pm 17.8 18.4 16.7 93 0.7 NE 9 13 5 7 1025.7 1025.6 0.0
20/11:00pm 17.2 17.5 15.9 92 0.8 N 9 11 5 6 1025.9 1025.8 0.0
20/10:30pm 17.5 17.9 16.2 92 0.8 NNE 9 11 5 6 1025.8 1025.7 0.0
20/10:00pm 17.3 17.1 15.8 91 0.9 NNE 11 13 6 7 1025.7 1025.6 0.0
20/09:30pm 17.8 18.2 16.3 91 0.9 NNE 9 13 5 7 1025.9 1025.8 0.0
20/09:00pm 17.9 18.3 16.2 90 1.0 NNE 9 11 5 6 1026.2 1026.1 0.0
20/08:30pm 17.9 18.2 16.1 89 1.1 NNE 9 15 5 8 1026.2 1026.1 0.0
20/08:00pm 18.6 17.9 16.4 87 1.3 NE 15 24 8 13 1025.8 1025.7 0.0
20/07:30pm 18.5 18.3 16.7 89 1.1 NE 13 19 7 10 1025.6 1025.5 0.0
20/07:00pm 18.4 17.6 16.2 87 1.3 ENE 15 22 8 12 1025.2 1025.1 0.0
20/06:30pm 18.5 17.3 16.1 86 1.4 ENE 17 24 9 13 1024.8 1024.7 0.0
20/06:00pm 18.4 17.0 15.6 84 1.6 ENE 17 24 9 13 1024.2 1024.1 0.0
20/05:30pm 18.7 17.3 15.6 82 1.8 E 17 22 9 12 1024.2 1024.1 0.0
20/05:00pm 19.3 18.3 15.6 79 2.2 E 15 22 8 12 1024.0 1023.9 0.0
20/04:30pm 19.9 18.7 15.1 74 2.8 E 15 20 8 11 1023.9 1023.8 0.0
20/04:00pm 20.4 18.6 15.6 74 2.8 E 19 24 10 13 1023.5 1023.4 0.0
20/03:30pm 20.6 18.6 15.4 72 3.1 E 20 26 11 14 1023.4 1023.3 0.0
20/03:00pm 21.1 19.3 15.9 72 3.1 E 20 26 11 14 1023.7 1023.6 0.0
20/02:30pm 21.2 19.5 15.7 71 3.3 ESE 19 26 10 14 1024.1 1024.0 0.0
20/02:00pm 21.7 20.5 16.0 70 3.4 ESE 17 24 9 13 1024.3 1024.2 0.0
20/01:30pm 21.4 19.6 15.5 69 3.5 ESE 19 24 10 13 1024.5 1024.4 0.0
20/01:00pm 21.9 20.5 15.5 67 3.8 ESE 17 22 9 12 1024.7 1024.6 0.0
20/12:30pm 21.7 20.5 16.0 70 3.4 ESE 17 24 9 13 1025.0 1024.9 0.0
20/12:00pm 21.7 20.2 15.3 67 3.8 ESE 17 24 9 13 1025.1 1025.0 0.0
20/11:30am 22.4 21.2 15.0 63 4.4 E 15 22 8 12 1025.4 1025.3 0.0
20/11:00am 22.6 21.9 15.4 64 4.3 ESE 13 19 7 10 1025.8 1025.7 0.0
20/10:30am 22.1 21.1 14.5 62 4.5 SE 13 17 7 9 1026.2 1026.1 0.0
20/10:00am 21.6 20.4 15.0 66 3.9 SE 15 20 8 11 1026.4 1026.3 0.0
20/09:30am 21.7 20.6 15.3 67 3.8 SSE 15 20 8 11 1026.6 1026.5 0.0
20/09:00am 21.0 19.6 14.6 67 3.7 SSE 15 20 8 11 1026.8 1026.7 0.0
20/08:30am 20.0 19.9 15.0 73 2.9 SSW 9 17 5 9 1026.8 1026.7 0.0
20/08:00am 19.1 18.9 14.8 76 2.5 WSW 9 13 5 7 1026.9 1026.8 0.0
20/07:30am 18.1 17.9 14.8 81 1.9 WSW 9 13 5 7 1026.4 1026.3 0.0
20/07:00am 16.6 16.9 15.0 90 0.9 W 7 11 4 6 1026.0 1025.9 0.0
20/06:30am 15.4 14.8 14.6 95 0.5 W 11 13 6 7 1025.9 1025.8 0.0
20/06:00am 14.9 14.5 14.1 95 0.4 WNW 9 13 5 7 1025.6 1025.5 0.0
20/05:30am 13.6 13.1 12.7 94 0.5 NNW 7 7 4 4 1025.3 1025.2 0.0
20/05:00am 13.9 13.4 12.8 93 0.6 N 7 9 4 5 1025.1 1025.0 0.0
20/04:30am 14.6 14.4 13.5 93 0.6 NNW 7 9 4 5 1024.8 1024.7 0.0
20/04:00am 15.4 15.7 14.4 94 0.6 WSW 6 9 3 5 1024.3 1024.2 0.0
20/03:30am 15.2 15.7 14.1 93 0.6 SW 4 7 2 4 1024.1 1024.0 0.0
20/03:00am 15.0 15.0 13.5 91 0.8 WNW 6 7 3 4 1024.1 1024.0 0.0
20/02:30am 15.3 15.3 13.5 89 1.0 WNW 6 7 3 4 1024.1 1024.0 0.0
20/02:00am 16.2 16.8 14.2 88 1.1 SW 4 11 2 6 1024.4 1024.3 0.0
20/01:30am 16.6 16.8 14.8 89 1.0 WSW 7 9 4 5 1024.4 1024.3 0.0
20/01:00am 16.6 16.4 14.6 88 1.1 WSW 9 13 5 7 1024.5 1024.4 0.0
20/12:30am 16.7 16.5 14.7 88 1.2 W 9 11 5 6 1024.5 1024.4 0.0
20/12:00am 16.6 16.6 14.1 85 1.4 W 7 11 4 6 1024.5 1024.4 0.0
 
Date/Time
EST
Temp
°C
App
Temp
°C
Dew
Point
°C
Rel
Hum
%
Delta-T
°C
Wind Press
QNH
hPa
Press
MSL
hPa
Rain since
9am
mm
Dir  Spd
km/h
Gust
km/h
Spd
kts
Gust
kts
19/11:30pm 16.7 16.3 14.0 84 1.5 W 9 13 5 7 1024.7 1024.6 0.0
19/11:00pm 16.7 16.6 14.0 84 1.5 W 7 11 4 6 1024.6 1024.5 0.0
19/10:30pm 15.9 15.2 13.2 84 1.5 NW 9 9 5 5 1024.6 1024.5 0.0
19/10:00pm 16.5 16.4 13.8 84 1.5 WNW 7 7 4 4 1024.7 1024.6 0.0
19/09:30pm 16.1 15.9 13.6 85 1.4 WNW 7 9 4 5 1024.7 1024.6 0.0
19/09:00pm 16.1 16.5 13.8 86 1.3 NNW 4 6 2 3 1024.5 1024.4 0.0
19/08:30pm 15.9 15.6 13.4 85 1.4 NNW 7 7 4 4 1024.4 1024.3 0.0
19/08:00pm 15.9 15.7 13.6 86 1.3 NNW 7 9 4 5 1024.3 1024.2 0.0
19/07:30pm 16.2 16.6 13.7 85 1.4 NNW 4 9 2 5 1024.2 1024.1 0.0
19/07:00pm 16.8 16.8 13.7 82 1.7 NNE 6 9 3 5 1024.0 1023.9 0.0
19/06:30pm 17.4 17.0 14.1 81 1.9 ESE 9 13 5 7 1023.7 1023.6 0.0
19/06:00pm 17.9 17.3 14.6 81 1.9 SE 11 15 6 8 1023.4 1023.3 0.0
19/05:30pm 18.1 17.5 14.6 80 2.0 SE 11 15 6 8 1023.3 1023.2 0.0
19/05:00pm 18.5 16.9 14.0 75 2.6 SE 15 19 8 10 1023.1 1023.0 0.0
19/04:30pm 19.2 16.5 13.6 70 3.2 SE 20 26 11 14 1022.7 1022.6 0.0
19/04:00pm 19.9 18.1 14.5 71 3.1 SE 17 24 9 13 1022.4 1022.3 0.0
19/03:30pm 20.5 18.4 14.6 69 3.5 SE 19 22 10 12 1022.3 1022.2 0.0
19/03:00pm 20.9 18.8 14.8 68 3.6 SE 19 24 10 13 1022.3 1022.2 0.0
19/02:30pm 21.3 18.6 14.5 65 4.0 SE 22 30 12 16 1022.1 1022.0 0.0
19/02:00pm 21.2 18.4 14.4 65 4.0 SE 22 28 12 15 1022.2 1022.1 0.0
19/01:30pm 22.5 20.3 14.4 60 4.8 SSE 19 24 10 13 1022.4 1022.3 0.0
19/01:00pm 21.7 19.7 13.9 61 4.5 SE 17 22 9 12 1022.5 1022.4 0.0
19/12:30pm 21.7 19.7 13.9 61 4.5 SE 17 24 9 13 1022.7 1022.6 0.0

Other formats

Comma delimited format used in spreadsheet applications
http://www.bom.gov.au/fwo/IDN60801/IDN60801.94598.axf

JavaScript Object Notation format (JSON) in row-major order
http://www.bom.gov.au/fwo/IDN60801/IDN60801.94598.json

Data quality

Most of these data are generated automatically and are frequently updated. Quality checks on data are not normally performed. It is possible for incorrect values to appear. Refer to information at About Latest Weather Observations and please check the disclaimer before using these data.